Time;durP1;ratioP1;P1;durP2;ratioP2;P2;SDS_P1;SDS_P2;PMS_P1;PMS_P2;Temp;Humidity;BMP_temperature;BMP_pressure;BME280_temperature;BME280_humidity;BME280_pressure;Samples;Min_cycle;Max_cycle;Signal;HPM_P1;HPM_P2
2023/06/26 00:02:20;;;;;;;11.13;6.75;;;20.10;99.90;;;;;;4996112;28;20026;-74
2023/06/26 00:04:53;;;;;;;11.02;6.28;;;20.10;99.90;;;;;;4978227;28;20050;-74
2023/06/26 00:07:26;;;;;;;12.52;6.97;;;20.10;99.90;;;;;;4995996;28;20034;-74
2023/06/26 00:10:05;;;;;;;10.70;6.95;;;20.00;99.90;;;;;;4991803;28;20052;-73
2023/06/26 00:12:44;;;;;;;12.98;7.03;;;20.00;99.90;;;;;;4979579;28;20042;-77
2023/06/26 00:15:17;;;;;;;12.82;7.00;;;20.00;99.90;;;;;;4975021;28;20035;-79
2023/06/26 00:17:50;;;;;;;11.85;6.93;;;20.00;99.90;;;;;;4975487;28;20109;-77
2023/06/26 00:20:23;;;;;;;10.20;6.63;;;20.00;99.90;;;;;;4974694;28;20037;-74
2023/06/26 00:22:58;;;;;;;14.38;7.03;;;20.00;99.90;;;;;;4974921;28;20486;-74
2023/06/26 00:25:31;;;;;;;15.40;7.78;;;19.90;99.90;;;;;;4974916;28;20033;-73
2023/06/26 00:28:03;;;;;;;11.77;7.13;;;19.90;99.90;;;;;;4975098;28;20039;-73
2023/06/26 00:30:37;;;;;;;14.50;8.25;;;19.80;99.90;;;;;;4974855;28;20022;-78
2023/06/26 00:33:10;;;;;;;13.00;7.32;;;19.80;99.90;;;;;;4974032;28;20037;-77
2023/06/26 00:35:42;;;;;;;12.00;6.88;;;19.80;99.90;;;;;;4957707;28;20085;-73
2023/06/26 00:38:14;;;;;;;;;;;19.80;99.90;;;;;;4977372;28;20150;-73
2023/06/26 00:40:46;;;;;;;14.38;7.88;;;19.80;99.90;;;;;;4974589;28;19962;-74
2023/06/26 00:43:18;;;;;;;12.52;7.25;;;19.70;99.90;;;;;;4974649;28;20048;-78
2023/06/26 00:45:50;;;;;;;14.18;7.93;;;19.70;99.90;;;;;;4959967;28;20035;-77
2023/06/26 00:48:22;;;;;;;12.50;7.28;;;19.70;99.90;;;;;;4974465;28;20505;-78
2023/06/26 00:50:54;;;;;;;14.73;7.85;;;19.70;99.90;;;;;;4973192;28;20030;-76
2023/06/26 00:53:27;;;;;;;14.80;8.07;;;19.70;99.90;;;;;;4978552;28;20053;-75
2023/06/26 00:56:01;;;;;;;15.10;7.22;;;19.60;99.90;;;;;;4957135;28;20031;-74
2023/06/26 00:58:36;;;;;;;12.02;7.38;;;19.50;99.90;;;;;;4974145;28;20029;-74
2023/06/26 01:01:08;;;;;;;14.68;8.18;;;19.50;99.90;;;;;;4960641;28;20038;-78
2023/06/26 01:03:41;;;;;;;14.15;8.52;;;19.50;99.90;;;;;;4973899;28;20022;-74
2023/06/26 01:06:15;;;;;;;15.05;7.35;;;19.50;99.90;;;;;;4974311;28;20034;-73
2023/06/26 01:08:48;;;;;;;13.65;7.63;;;19.50;99.90;;;;;;4973707;28;20034;-78
2023/06/26 01:11:27;;;;;;;12.23;7.25;;;19.40;99.90;;;;;;4977367;28;20490;-77
2023/06/26 01:14:01;;;;;;;14.38;7.95;;;19.30;99.90;;;;;;4974176;28;20031;-75
2023/06/26 01:16:35;;;;;;;21.85;7.97;;;19.30;99.90;;;;;;4957214;28;20077;-74
2023/06/26 01:19:13;;;;;;;13.43;8.43;;;19.20;99.90;;;;;;4973918;28;20034;-75
2023/06/26 01:21:47;;;;;;;12.93;7.20;;;19.20;99.90;;;;;;4973857;28;20085;-75
2023/06/26 01:24:27;;;;;;;13.82;8.13;;;19.20;99.90;;;;;;4972937;28;20390;-77
2023/06/26 01:27:02;;;;;;;12.07;7.60;;;19.10;99.90;;;;;;4969864;28;20030;-73
2023/06/26 01:29:35;;;;;;;13.75;8.00;;;19.20;99.90;;;;;;4973942;28;20035;-74
2023/06/26 01:32:08;;;;;;;14.77;7.57;;;19.10;99.90;;;;;;4956616;28;20023;-73
2023/06/26 01:34:42;;;;;;;17.05;7.65;;;19.10;99.90;;;;;;4972440;28;20023;-73
2023/06/26 01:37:14;;;;;;;13.45;8.82;;;19.00;99.90;;;;;;4975421;28;20023;-73
2023/06/26 01:39:47;;;;;;;16.42;8.18;;;19.00;99.90;;;;;;4973520;28;20026;-77
2023/06/26 01:42:19;;;;;;;14.25;8.48;;;18.90;99.90;;;;;;4973418;28;20090;-76
2023/06/26 01:44:53;;;;;;;11.65;7.63;;;18.90;99.90;;;;;;4973615;28;20025;-76
2023/06/26 01:47:28;;;;;;;12.85;8.35;;;18.90;99.90;;;;;;4973327;28;20027;-74
2023/06/26 01:50:16;;;;;;;12.38;7.90;;;18.90;99.90;;;;;;4956004;28;20050;-76
2023/06/26 01:53:12;;;;;;;13.50;8.00;;;18.90;99.90;;;;;;4956245;28;20026;-74
2023/06/26 01:55:53;;;;;;;13.30;8.18;;;18.80;99.90;;;;;;4973849;28;20124;-74
2023/06/26 01:58:26;;;;;;;13.77;8.45;;;18.80;99.90;;;;;;4972036;28;20027;-75
2023/06/26 02:01:00;;;;;;;13.23;7.80;;;18.80;99.90;;;;;;4968267;28;20027;-73
2023/06/26 02:03:32;;;;;;;17.73;9.07;;;18.80;99.90;;;;;;4972720;28;20034;-74
2023/06/26 02:06:04;;;;;;;15.20;8.95;;;18.80;99.90;;;;;;4972935;28;20106;-74
2023/06/26 02:08:36;;;;;;;14.75;9.20;;;18.80;99.90;;;;;;4973028;28;20081;-77
2023/06/26 02:11:15;;;;;;;17.98;7.30;;;18.80;99.90;;;;;;4972747;28;20157;-74
2023/06/26 02:13:54;;;;;;;15.05;8.93;;;18.70;99.90;;;;;;4972425;28;20448;-77
2023/06/26 02:16:27;;;;;;;14.35;8.30;;;18.70;99.90;;;;;;4955962;28;20475;-77
2023/06/26 02:18:59;;;;;;;15.90;8.30;;;18.70;99.90;;;;;;4972798;28;20081;-75
2023/06/26 02:21:32;;;;;;;16.75;9.00;;;18.70;99.90;;;;;;4955174;28;20046;-76
2023/06/26 02:24:05;;;;;;;13.60;8.52;;;18.70;99.90;;;;;;4973090;28;20038;-73
2023/06/26 02:26:37;;;;;;;16.42;8.80;;;18.70;99.90;;;;;;4955299;28;20027;-78
2023/06/26 02:29:10;;;;;;;14.85;9.73;;;18.70;99.90;;;;;;4972557;28;20076;-75
2023/06/26 02:31:43;;;;;;;14.02;9.07;;;18.60;99.90;;;;;;4954387;28;20502;-76
2023/06/26 02:34:15;;;;;;;14.88;9.27;;;18.70;99.90;;;;;;4980610;28;20026;-75
2023/06/26 02:36:47;;;;;;;;;;;18.60;99.90;;;;;;4974335;28;20023;-77
2023/06/26 02:39:20;;;;;;;15.73;9.75;;;18.60;99.90;;;;;;4956330;28;19910;-73
2023/06/26 02:41:53;;;;;;;14.32;8.32;;;18.50;99.90;;;;;;4955429;28;20035;-73
2023/06/26 02:44:26;;;;;;;16.75;9.57;;;18.60;99.90;;;;;;4972572;28;20390;-76
2023/06/26 02:46:58;;;;;;;16.95;9.73;;;18.60;99.90;;;;;;4963794;28;20034;-73
2023/06/26 02:49:30;;;;;;;;;;;18.60;99.90;;;;;;4961160;28;20050;-73
2023/06/26 02:52:02;;;;;;;16.27;9.48;;;18.60;99.90;;;;;;4976210;28;20258;-76
2023/06/26 02:54:34;;;;;;;13.70;8.43;;;18.50;99.90;;;;;;4958948;28;20089;-75
2023/06/26 02:57:06;;;;;;;15.65;9.20;;;18.50;99.90;;;;;;4955199;28;20513;-73
2023/06/26 02:59:39;;;;;;;18.20;8.50;;;18.50;99.90;;;;;;4958095;28;20036;-73
2023/06/26 03:02:13;;;;;;;12.95;8.73;;;18.50;99.90;;;;;;4970924;28;20047;-73
2023/06/26 03:04:45;;;;;;;15.30;9.23;;;18.50;99.90;;;;;;4954375;28;20027;-73
2023/06/26 03:07:18;;;;;;;17.42;10.07;;;18.50;99.90;;;;;;4971977;28;20026;-74
2023/06/26 03:09:56;;;;;;;14.85;9.30;;;18.50;99.90;;;;;;4971509;28;20055;-73
2023/06/26 03:12:35;;;;;;;14.40;8.85;;;18.50;99.90;;;;;;4954708;28;20764;-76
2023/06/26 03:15:08;;;;;;;16.25;9.32;;;18.40;99.90;;;;;;4954385;28;20053;-73
2023/06/26 03:17:41;;;;;;;16.65;10.02;;;18.50;99.90;;;;;;4970792;28;20026;-73
2023/06/26 03:20:20;;;;;;;14.43;8.93;;;18.50;99.90;;;;;;4955476;28;20043;-77
2023/06/26 03:22:54;;;;;;;15.27;10.13;;;18.50;99.90;;;;;;4954487;28;20039;-73
2023/06/26 03:25:27;;;;;;;15.48;8.73;;;18.60;99.90;;;;;;4953274;28;20030;-72
2023/06/26 03:28:15;;;;;;;15.20;8.35;;;18.60;99.90;;;;;;4953753;28;20039;-74
2023/06/26 03:30:48;;;;;;;21.13;9.15;;;18.60;99.90;;;;;;4972031;28;20027;-78
2023/06/26 03:33:20;;;;;;;;;;;18.70;99.90;;;;;;4959039;28;20030;-73
2023/06/26 03:35:54;;;;;;;15.65;9.13;;;18.70;99.90;;;;;;4970320;28;19921;-74
2023/06/26 03:38:27;;;;;;;14.45;8.93;;;18.70;99.90;;;;;;4972681;28;20102;-76
2023/06/26 03:40:59;;;;;;;13.68;8.27;;;18.80;99.90;;;;;;4954361;28;20057;-76
2023/06/26 03:43:32;;;;;;;13.30;8.57;;;18.90;99.90;;;;;;4954133;28;20051;-73
2023/06/26 03:46:13;;;;;;;14.65;8.65;;;19.80;99.90;;;;;;4954196;28;20045;-75
2023/06/26 03:48:46;;;;;;;13.25;6.85;;;20.70;99.90;;;;;;4971537;28;20119;-73
2023/06/26 03:51:19;;;;;;;12.45;7.32;;;21.60;99.90;;;;;;4954904;28;20034;-77
2023/06/26 03:53:53;;;;;;;11.13;6.65;;;22.20;99.90;;;;;;4953346;28;20037;-73
2023/06/26 03:56:26;;;;;;;9.30;5.85;;;23.10;99.90;;;;;;4953583;28;20053;-76
2023/06/26 03:59:00;;;;;;;11.25;6.80;;;23.50;99.90;;;;;;4954482;28;20374;-75
2023/06/26 04:01:32;;;;;;;11.38;6.20;;;23.60;99.90;;;;;;4971310;28;20019;-77
2023/06/26 04:04:05;;;;;;;10.90;5.55;;;24.10;99.90;;;;;;4961678;28;20402;-77
2023/06/26 04:06:38;;;;;;;10.93;6.22;;;24.70;99.90;;;;;;4970235;28;20054;-75
2023/06/26 04:09:09;;;;;;;;;;;25.20;99.90;;;;;;4971780;28;20038;-77
2023/06/26 04:11:48;;;;;;;11.82;5.95;;;25.80;99.90;;;;;;4950865;28;19962;-76
2023/06/26 04:14:21;;;;;;;9.98;5.72;;;25.50;99.90;;;;;;4940215;28;20105;-75
2023/06/26 04:16:54;;;;;;;13.48;6.30;;;25.50;99.90;;;;;;4974242;28;20080;-73
2023/06/26 04:19:26;;;;;;;7.97;5.75;;;25.90;99.10;;;;;;4971571;28;20026;-72
2023/06/26 04:22:04;;;;;;;14.13;6.80;;;26.50;99.90;;;;;;4971183;28;20047;-72
2023/06/26 04:24:37;;;;;;;9.68;5.80;;;26.40;98.40;;;;;;4971225;28;20034;-72
2023/06/26 04:27:09;;;;;;;11.70;5.90;;;26.50;98.60;;;;;;4971420;28;20027;-73
2023/06/26 04:29:42;;;;;;;10.68;5.85;;;26.80;97.20;;;;;;4970927;28;20394;-73
2023/06/26 04:32:14;;;;;;;8.32;5.93;;;28.20;95.00;;;;;;4971108;28;20081;-73
2023/06/26 04:34:47;;;;;;;9.82;5.80;;;28.20;94.70;;;;;;4971537;28;20038;-72
2023/06/26 04:37:20;;;;;;;12.32;6.47;;;28.50;93.50;;;;;;4979514;28;20030;-73
2023/06/26 04:39:52;;;;;;;9.32;5.63;;;28.20;93.80;;;;;;4995917;28;20382;-72
2023/06/26 04:42:24;;;;;;;8.75;5.72;;;27.30;93.70;;;;;;4982782;28;20030;-73
2023/06/26 04:44:56;;;;;;;9.55;6.35;;;27.90;93.30;;;;;;4990108;28;20034;-73
2023/06/26 04:47:28;;;;;;;9.00;6.22;;;27.30;94.20;;;;;;4996097;28;20033;-73
2023/06/26 04:50:00;;;;;;;8.57;5.30;;;27.90;93.50;;;;;;4995012;28;20041;-74
2023/06/26 04:52:32;;;;;;;10.05;6.13;;;27.70;94.10;;;;;;4995371;28;20030;-77
2023/06/26 04:55:04;;;;;;;11.20;6.35;;;27.50;94.10;;;;;;4994904;28;20447;-72
2023/06/26 04:57:37;;;;;;;12.63;6.20;;;26.90;95.30;;;;;;4995214;28;20030;-78
2023/06/26 05:00:10;;;;;;;12.30;7.05;;;26.40;96.40;;;;;;4994845;28;20026;-73
2023/06/26 05:02:43;;;;;;;12.50;6.90;;;24.80;99.90;;;;;;4993459;28;20042;-74
2023/06/26 05:05:14;;;;;;;;;;;24.50;99.90;;;;;;4984704;28;20382;-73
2023/06/26 05:07:47;;;;;;;10.60;6.47;;;24.00;99.90;;;;;;4994809;28;20342;-73
2023/06/26 05:10:25;;;;;;;;;;;23.80;99.90;;;;;;4978056;28;20054;-73
2023/06/26 05:13:04;;;;;;;10.85;6.53;;;23.60;99.90;;;;;;4993895;28;19971;-74
2023/06/26 05:15:37;;;;;;;11.85;7.82;;;23.60;99.90;;;;;;4978860;28;20022;-72
2023/06/26 05:18:09;;;;;;;12.82;7.70;;;23.60;99.90;;;;;;4979671;28;20065;-73
2023/06/26 05:20:42;;;;;;;12.60;7.40;;;23.90;99.90;;;;;;4972941;28;20098;-72
2023/06/26 05:23:16;;;;;;;11.80;7.65;;;24.00;99.90;;;;;;4956425;28;20042;-73
2023/06/26 05:25:50;;;;;;;12.45;7.18;;;23.80;99.90;;;;;;4973848;28;20065;-73
2023/06/26 05:28:24;;;;;;;13.80;7.38;;;23.80;99.90;;;;;;4974381;28;20041;-73
2023/06/26 05:31:00;;;;;;;11.80;6.70;;;24.20;99.90;;;;;;4972340;28;20106;-76
2023/06/26 05:33:36;;;;;;;10.98;6.93;;;24.30;99.90;;;;;;4983389;28;20045;-76
2023/06/26 05:36:09;;;;;;;11.35;7.30;;;24.20;99.90;;;;;;4992568;28;20026;-76
2023/06/26 05:38:42;;;;;;;13.15;6.72;;;24.10;99.90;;;;;;4977280;28;20023;-73
2023/06/26 05:41:15;;;;;;;11.80;6.68;;;24.40;99.90;;;;;;4975158;28;20038;-74
2023/06/26 05:43:48;;;;;;;10.98;6.50;;;24.20;99.90;;;;;;4982063;28;20030;-73
2023/06/26 05:46:20;;;;;;;;;;;24.30;99.90;;;;;;5007555;28;20064;-78
2023/06/26 05:48:52;;;;;;;11.02;6.70;;;24.50;99.90;;;;;;4996883;28;19918;-78
2023/06/26 05:51:24;;;;;;;14.50;7.30;;;24.60;99.90;;;;;;5013244;28;20045;-78
2023/06/26 05:53:57;;;;;;;25.65;7.50;;;24.60;99.90;;;;;;4995449;28;20478;-74
2023/06/26 05:56:30;;;;;;;10.27;6.50;;;24.90;99.90;;;;;;4995085;28;20792;-75
2023/06/26 05:59:05;;;;;;;12.45;7.07;;;24.90;99.90;;;;;;4995009;28;20374;-77
2023/06/26 06:01:38;;;;;;;14.95;6.70;;;24.90;99.90;;;;;;4994510;28;20030;-77
2023/06/26 06:04:10;;;;;;;;;;;24.80;99.90;;;;;;4993054;28;20041;-77
2023/06/26 06:06:42;;;;;;;13.32;7.30;;;25.00;99.90;;;;;;4994534;28;19910;-77
2023/06/26 06:09:14;;;;;;;10.15;6.90;;;25.40;99.90;;;;;;4988422;28;20144;-73
2023/06/26 06:11:53;;;;;;;11.00;6.38;;;25.40;99.90;;;;;;4962754;28;20394;-74
2023/06/26 06:14:26;;;;;;;10.98;6.30;;;25.40;99.90;;;;;;4979389;28;20023;-73
2023/06/26 06:16:58;;;;;;;;;;;25.30;99.90;;;;;;4986027;28;20318;-74
2023/06/26 06:19:30;;;;;;;43.63;30.50;;;25.40;99.90;;;;;;4992771;28;20004;-78
2023/06/26 06:22:02;;;;;;;28.33;18.38;;;25.30;99.90;;;;;;4991594;28;20027;-77
2023/06/26 06:24:33;;;;;;;;;;;25.80;99.90;;;;;;4993802;28;20381;-77
2023/06/26 06:27:06;;;;;;;13.95;7.22;;;25.80;99.90;;;;;;4967391;28;19945;-74
2023/06/26 06:29:39;;;;;;;12.45;6.65;;;25.80;99.90;;;;;;4984879;28;20085;-77
2023/06/26 06:32:11;;;;;;;;;;;25.90;99.90;;;;;;4991994;28;20549;-76
2023/06/26 06:34:43;;;;;;;12.85;7.03;;;26.00;99.90;;;;;;4989919;28;19949;-75
2023/06/26 06:37:15;;;;;;;13.35;7.43;;;26.20;99.90;;;;;;4983692;28;20453;-78
2023/06/26 06:39:47;;;;;;;;;;;26.20;99.90;;;;;;4972316;28;20030;-73
2023/06/26 06:42:19;;;;;;;10.05;6.53;;;26.20;99.90;;;;;;4977890;28;19914;-77
2023/06/26 06:44:50;;;;;;;;;;;26.10;99.90;;;;;;4985987;28;20118;-75
2023/06/26 06:47:23;;;;;;;9.18;6.22;;;26.40;99.90;;;;;;4979370;28;19972;-74
2023/06/26 06:49:55;;;;;;;10.90;5.55;;;26.30;99.90;;;;;;4974103;28;20035;-73
2023/06/26 06:52:26;;;;;;;;;;;26.40;99.90;;;;;;4990265;28;20037;-75
2023/06/26 06:54:59;;;;;;;11.30;5.70;;;26.30;99.90;;;;;;4994431;28;19910;-76
2023/06/26 06:57:37;;;;;;;13.70;6.32;;;26.30;99.90;;;;;;4992955;28;20081;-76
2023/06/26 07:00:11;;;;;;;11.95;6.03;;;26.50;99.90;;;;;;4993610;28;20034;-73
2023/06/26 07:02:45;;;;;;;10.80;6.13;;;26.50;99.90;;;;;;4992943;28;20037;-74
2023/06/26 07:05:18;;;;;;;13.23;6.28;;;26.70;99.80;;;;;;4992973;28;20053;-79
2023/06/26 07:07:50;;;;;;;11.27;5.82;;;26.70;99.90;;;;;;4992819;28;20028;-80
2023/06/26 07:10:28;;;;;;;12.80;5.85;;;27.00;99.90;;;;;;4992447;28;20066;-79
2023/06/26 07:13:01;;;;;;;8.57;5.38;;;27.00;99.90;;;;;;4980321;28;20029;-75
2023/06/26 07:15:34;;;;;;;9.27;5.45;;;27.40;98.70;;;;;;4992444;28;20041;-80
2023/06/26 07:18:06;;;;;;;10.90;5.13;;;27.70;97.80;;;;;;4992915;28;20061;-81
2023/06/26 07:20:38;;;;;;;7.93;4.07;;;27.80;98.30;;;;;;4975511;28;20481;-82
2023/06/26 07:23:10;;;;;;;9.60;4.72;;;28.00;96.50;;;;;;4992537;28;20038;-75
2023/06/26 07:25:42;;;;;;;10.00;4.70;;;28.20;96.30;;;;;;4976525;28;20378;-83
2023/06/26 07:28:14;;;;;;;8.73;4.80;;;28.20;96.60;;;;;;4992541;28;20026;-75
2023/06/26 07:30:47;;;;;;;7.93;4.18;;;28.30;94.50;;;;;;4992917;28;20034;-78
2023/06/26 07:33:20;;;;;;;8.13;4.65;;;28.20;96.20;;;;;;4992607;28;20434;-75
2023/06/26 07:35:53;;;;;;;9.95;4.65;;;28.00;92.80;;;;;;4992820;28;20038;-75
2023/06/26 07:38:25;;;;;;;7.35;4.38;;;27.80;92.80;;;;;;4992335;28;20358;-75
2023/06/26 07:40:57;;;;;;;6.88;4.72;;;27.80;94.50;;;;;;4992595;28;20041;-82
2023/06/26 07:43:29;;;;;;;7.65;4.82;;;27.90;92.70;;;;;;4992478;28;20172;-75
2023/06/26 07:46:02;;;;;;;8.77;4.55;;;28.10;94.40;;;;;;4992011;28;20068;-74
2023/06/26 07:48:34;;;;;;;7.35;4.78;;;28.30;93.90;;;;;;4992354;28;20045;-75
2023/06/26 07:51:06;;;;;;;7.75;4.80;;;28.30;94.30;;;;;;4992152;28;20026;-74
2023/06/26 07:53:38;;;;;;;6.68;4.25;;;28.00;94.10;;;;;;4992889;28;20116;-75
2023/06/26 07:56:11;;;;;;;7.38;3.78;;;28.50;92.90;;;;;;4992484;28;20029;-74
2023/06/26 07:58:43;;;;;;;7.78;4.75;;;28.60;93.40;;;;;;4992133;28;20069;-78
2023/06/26 08:01:15;;;;;;;8.57;4.00;;;28.60;90.90;;;;;;4992599;28;20029;-74
2023/06/26 08:03:47;;;;;;;6.85;3.53;;;28.20;92.40;;;;;;4992009;28;20377;-75
2023/06/26 08:06:19;;;;;;;10.18;4.38;;;28.30;92.80;;;;;;4992528;28;20023;-74
2023/06/26 08:08:51;;;;;;;7.32;4.07;;;28.40;92.70;;;;;;4974635;28;20510;-79
2023/06/26 08:11:29;;;;;;;6.53;4.05;;;28.70;91.40;;;;;;4977505;28;20110;-73
2023/06/26 08:14:08;;;;;;;8.75;4.40;;;28.80;92.00;;;;;;4980213;28;20027;-79
2023/06/26 08:16:42;;;;;;;7.05;3.80;;;28.80;92.60;;;;;;4995048;28;20053;-73
2023/06/26 08:19:15;;;;;;;5.63;3.45;;;28.70;90.10;;;;;;4995902;28;20034;-73
2023/06/26 08:21:48;;;;;;;11.48;3.85;;;28.70;90.60;;;;;;4982549;28;20058;-73
2023/06/26 08:24:21;;;;;;;8.93;3.78;;;29.20;92.00;;;;;;4978425;28;20023;-74
2023/06/26 08:26:53;;;;;;;7.35;4.40;;;29.30;90.10;;;;;;4980510;28;20037;-73
2023/06/26 08:29:25;;;;;;;4.93;3.53;;;29.40;90.10;;;;;;4987360;28;20122;-76
2023/06/26 08:31:57;;;;;;;6.75;3.55;;;28.90;86.80;;;;;;4975843;28;20026;-74
2023/06/26 08:34:29;;;;;;;6.22;3.35;;;28.60;84.80;;;;;;4975033;28;20097;-78
2023/06/26 08:37:03;;;;;;;8.73;3.80;;;;;;;;;;4987556;28;20049;-73
2023/06/26 08:39:36;;;;;;;5.35;3.40;;;28.30;85.30;;;;;;4980551;28;20026;-78
2023/06/26 08:42:08;;;;;;;6.88;3.63;;;28.40;90.40;;;;;;4994577;28;20034;-77
2023/06/26 08:44:41;;;;;;;5.00;3.00;;;28.80;89.70;;;;;;4980533;28;20037;-73
2023/06/26 08:47:13;;;;;;;5.85;2.92;;;28.70;89.60;;;;;;4996717;28;20105;-74
2023/06/26 08:49:56;;;;;;;9.20;3.38;;;;;;;;;;4996702;28;20037;-79
2023/06/26 08:52:33;;;;;;;6.50;3.03;;;29.50;88.40;;;;;;4983839;28;20386;-77
2023/06/26 08:55:10;;;;;;;6.35;3.53;;;29.40;84.80;;;;;;4992742;28;20035;-76
2023/06/26 08:57:42;;;;;;;6.43;3.67;;;29.80;85.30;;;;;;4984947;28;20123;-73
2023/06/26 09:00:15;;;;;;;9.77;4.05;;;30.80;84.90;;;;;;4983517;28;20513;-74
2023/06/26 09:02:48;;;;;;;5.88;3.50;;;29.70;84.40;;;;;;4993032;28;20022;-77
2023/06/26 09:05:20;;;;;;;5.35;2.67;;;29.70;83.20;;;;;;4993080;28;20057;-74
2023/06/26 09:07:55;;;;;;;7.18;3.95;;;29.60;82.20;;;;;;4986537;28;20041;-74
2023/06/26 09:10:34;;;;;;;5.93;3.17;;;29.60;85.40;;;;;;4992684;28;20054;-77
2023/06/26 09:13:19;;;;;;;5.97;3.53;;;29.60;85.40;;;;;;4977418;28;20062;-75
2023/06/26 09:15:55;;;;;;;6.13;3.10;;;29.40;82.30;;;;;;4976259;28;20109;-75
2023/06/26 09:18:27;;;;;;;6.50;3.45;;;29.00;80.30;;;;;;4994303;28;20482;-76
2023/06/26 09:20:59;;;;;;;8.25;2.92;;;29.30;82.50;;;;;;4994621;28;20030;-75
2023/06/26 09:23:32;;;;;;;4.95;3.47;;;29.60;83.80;;;;;;4979316;28;20025;-74
2023/06/26 09:26:07;;;;;;;4.00;2.85;;;29.30;85.00;;;;;;4994559;28;20045;-74
2023/06/26 09:28:43;;;;;;;4.60;2.90;;;28.90;79.70;;;;;;4994627;28;20462;-77
2023/06/26 09:31:16;;;;;;;5.88;2.90;;;28.60;77.70;;;;;;4994594;28;20466;-76
2023/06/26 09:33:55;;;;;;;4.32;2.75;;;28.90;79.30;;;;;;4994584;28;20027;-75
2023/06/26 09:36:35;;;;;;;5.78;3.33;;;29.20;83.40;;;;;;4994273;28;20018;-74
2023/06/26 09:39:10;;;;;;;2.88;2.50;;;;;;;;;;4994844;28;20370;-74
2023/06/26 09:41:44;;;;;;;4.85;2.88;;;29.70;92.90;;;;;;4994324;28;20030;-74
2023/06/26 09:44:18;;;;;;;3.92;2.72;;;29.00;79.10;;;;;;4994480;28;20033;-76
2023/06/26 09:46:50;;;;;;;8.80;2.95;;;28.60;77.60;;;;;;4994503;28;20026;-74
2023/06/26 09:49:23;;;;;;;4.65;2.60;;;28.50;77.90;;;;;;4994058;28;20387;-74
2023/06/26 09:51:56;;;;;;;5.28;3.10;;;28.40;79.90;;;;;;4995076;28;20374;-78
2023/06/26 09:54:30;;;;;;;6.57;3.15;;;28.20;79.00;;;;;;4994071;28;20026;-74
2023/06/26 09:57:13;;;;;;;5.10;3.30;;;28.70;75.90;;;;;;4994091;28;20023;-74
2023/06/26 09:59:45;;;;;;;5.30;3.00;;;29.20;76.20;;;;;;4994286;28;20041;-74
2023/06/26 10:02:18;;;;;;;6.15;3.13;;;29.40;76.30;;;;;;4994039;28;20026;-74
2023/06/26 10:04:50;;;;;;;5.28;3.05;;;29.30;79.00;;;;;;4993810;28;20022;-75
2023/06/26 10:07:22;;;;;;;7.13;3.10;;;29.00;77.80;;;;;;4993723;28;20026;-73
2023/06/26 10:09:56;;;;;;;5.40;3.15;;;28.60;76.80;;;;;;4994148;28;20053;-74
2023/06/26 10:12:35;;;;;;;5.47;3.15;;;29.00;77.30;;;;;;4977211;28;20058;-74
2023/06/26 10:15:12;;;;;;;4.30;2.85;;;28.80;74.20;;;;;;4993723;28;20039;-74
2023/06/26 10:17:47;;;;;;;5.22;3.13;;;29.30;76.60;;;;;;4993863;28;20038;-73
2023/06/26 10:20:19;;;;;;;4.03;3.00;;;29.60;78.10;;;;;;4993796;28;20034;-75
2023/06/26 10:22:53;;;;;;;5.60;2.95;;;29.70;76.00;;;;;;4993501;28;20034;-76
2023/06/26 10:25:27;;;;;;;5.93;3.38;;;29.80;77.70;;;;;;4993396;28;20034;-74
2023/06/26 10:28:03;;;;;;;4.70;3.25;;;29.30;76.40;;;;;;4993068;28;20142;-75
2023/06/26 10:30:36;;;;;;;5.03;3.58;;;29.20;75.90;;;;;;4993448;28;20057;-78
2023/06/26 10:33:09;;;;;;;5.78;3.45;;;29.40;77.10;;;;;;4993401;28;20467;-78
2023/06/26 10:35:46;;;;;;;5.72;3.15;;;29.40;79.20;;;;;;4993137;28;20036;-76
2023/06/26 10:38:18;;;;;;;6.18;3.20;;;29.30;80.30;;;;;;4993334;28;20038;-73
2023/06/26 10:40:50;;;;;;;6.30;3.42;;;29.20;79.90;;;;;;4975754;28;20452;-81
2023/06/26 10:43:30;;;;;;;5.03;2.85;;;29.30;79.70;;;;;;4992671;28;20026;-75
2023/06/26 10:46:02;;;;;;;10.18;3.08;;;29.10;78.30;;;;;;4985805;28;20023;-77
2023/06/26 10:48:58;;;;;;;7.13;3.88;;;29.00;75.80;;;;;;4997820;28;20109;-76
2023/06/26 10:51:31;;;;;;;6.20;3.30;;;28.80;75.20;;;;;;4998483;28;20030;-77
2023/06/26 10:54:04;;;;;;;5.32;3.00;;;28.60;76.10;;;;;;4993901;28;20122;-77
2023/06/26 10:56:47;;;;;;;6.18;3.10;;;29.00;75.70;;;;;;4993789;28;20109;-78
2023/06/26 10:59:21;;;;;;;8.38;3.33;;;29.20;75.90;;;;;;4993698;28;20045;-79
2023/06/26 11:02:04;;;;;;;6.97;3.50;;;29.00;75.50;;;;;;4992223;28;20054;-78
2023/06/26 11:04:49;;;;;;;6.63;3.17;;;28.90;76.70;;;;;;4993829;28;20030;-74
2023/06/26 11:07:26;;;;;;;6.28;3.38;;;28.80;75.90;;;;;;4991425;28;20037;-78
2023/06/26 11:09:59;;;;;;;8.75;3.95;;;28.70;79.80;;;;;;4984575;28;20122;-81
2023/06/26 11:12:49;;;;;;;6.75;3.10;;;28.90;80.90;;;;;;4978124;28;20493;-81
2023/06/26 11:15:22;;;;;;;4.28;3.05;;;29.00;81.40;;;;;;4992559;28;20031;-76
2023/06/26 11:17:55;;;;;;;5.95;3.35;;;29.40;80.70;;;;;;4993300;28;20072;-77
2023/06/26 11:20:27;;;;;;;4.30;3.20;;;29.30;79.00;;;;;;4992866;28;20114;-74
2023/06/26 11:23:00;;;;;;;6.90;3.30;;;29.20;82.40;;;;;;4993422;28;20044;-74
2023/06/26 11:25:37;;;;;;;7.78;3.63;;;29.50;80.00;;;;;;4992515;28;20041;-77
2023/06/26 11:28:11;;;;;;;5.30;3.20;;;29.60;79.00;;;;;;4982728;28;20038;-82
2023/06/26 11:30:43;;;;;;;4.78;3.40;;;29.60;80.40;;;;;;4993432;28;20455;-74
2023/06/26 11:33:15;;;;;;;7.50;3.65;;;29.50;75.70;;;;;;4976782;28;20038;-83
2023/06/26 11:35:47;;;;;;;4.95;3.33;;;29.40;80.40;;;;;;4993588;28;20069;-80
2023/06/26 11:38:19;;;;;;;5.72;3.17;;;29.30;80.70;;;;;;4992631;28;20133;-73
2023/06/26 11:40:51;;;;;;;8.40;3.28;;;29.50;79.70;;;;;;4993125;28;20038;-77
2023/06/26 11:43:24;;;;;;;6.28;3.28;;;29.60;82.60;;;;;;4992981;28;20401;-74
2023/06/26 11:45:56;;;;;;;5.82;3.75;;;29.80;79.60;;;;;;4991980;28;20062;-79
2023/06/26 11:48:29;;;;;;;4.45;2.63;;;29.70;75.70;;;;;;4992149;28;20034;-73
2023/06/26 11:51:05;;;;;;;5.40;2.97;;;29.80;76.20;;;;;;4976301;28;20031;-76
2023/06/26 11:53:44;;;;;;;6.40;3.38;;;29.80;76.60;;;;;;4993297;28;20018;-77
2023/06/26 11:56:17;;;;;;;5.80;3.63;;;29.80;74.50;;;;;;4981117;28;20041;-77
2023/06/26 11:59:04;;;;;;;4.82;3.60;;;29.80;77.80;;;;;;4976673;28;20022;-73
2023/06/26 12:01:40;;;;;;;4.78;3.47;;;29.80;74.10;;;;;;4991481;28;20038;-76
2023/06/26 12:04:15;;;;;;;6.88;3.53;;;30.00;77.40;;;;;;4993397;28;20026;-75
2023/06/26 12:06:50;;;;;;;4.95;3.30;;;30.40;78.90;;;;;;4991980;28;20042;-76
2023/06/26 12:09:24;;;;;;;4.63;2.97;;;30.10;77.60;;;;;;4992237;28;20038;-76
2023/06/26 12:12:05;;;;;;;4.53;2.88;;;29.90;75.70;;;;;;4992236;28;20383;-74
2023/06/26 12:14:56;;;;;;;4.90;3.03;;;30.00;75.60;;;;;;4986047;28;20034;-77
2023/06/26 12:17:29;;;;;;;6.30;3.42;;;30.20;72.70;;;;;;4991324;28;20034;-77
2023/06/26 12:20:05;;;;;;;5.65;3.47;;;30.30;76.70;;;;;;4992134;28;20026;-77
2023/06/26 12:22:55;;;;;;;6.05;3.35;;;30.00;76.10;;;;;;4989843;28;20049;-77
2023/06/26 12:25:34;;;;;;;4.82;3.42;;;30.10;76.20;;;;;;4990232;28;20113;-78
2023/06/26 12:28:18;;;;;;;4.82;3.15;;;30.10;74.30;;;;;;4992652;28;20061;-77
2023/06/26 12:31:16;;;;;;;5.32;3.03;;;30.20;74.80;;;;;;4992292;28;20034;-71
2023/06/26 12:33:49;;;;;;;4.45;2.97;;;29.90;73.00;;;;;;4992440;28;20026;-73
2023/06/26 12:36:21;;;;;;;6.93;3.13;;;29.80;73.10;;;;;;4992207;28;20019;-77
2023/06/26 12:38:54;;;;;;;7.10;3.42;;;29.50;74.50;;;;;;4992520;28;20022;-76
2023/06/26 12:41:26;;;;;;;4.90;3.25;;;29.30;79.10;;;;;;4984575;28;20070;-76
2023/06/26 12:44:01;;;;;;;6.15;3.53;;;29.10;79.90;;;;;;4987104;28;20022;-77
2023/06/26 12:46:37;;;;;;;5.63;3.53;;;29.00;77.80;;;;;;4991486;28;20030;-76
2023/06/26 12:49:12;;;;;;;6.40;3.30;;;28.80;79.30;;;;;;4985392;28;20034;-76
2023/06/26 12:51:45;;;;;;;5.55;3.63;;;28.70;78.20;;;;;;4975024;28;20034;-78
2023/06/26 12:54:18;;;;;;;9.20;4.00;;;28.70;78.90;;;;;;4973316;28;20031;-76
2023/06/26 12:56:50;;;;;;;5.25;3.72;;;28.90;79.60;;;;;;4945659;28;20031;-80
2023/06/26 12:59:22;;;;;;;5.65;3.75;;;28.80;78.90;;;;;;4992737;28;20030;-76
2023/06/26 13:01:55;;;;;;;6.10;3.47;;;28.90;77.80;;;;;;4995116;28;20018;-79
2023/06/26 13:04:28;;;;;;;4.45;3.58;;;29.10;78.80;;;;;;4993962;28;20057;-75
2023/06/26 13:07:01;;;;;;;4.00;2.83;;;29.30;76.70;;;;;;4991890;28;20061;-76
2023/06/26 13:09:35;;;;;;;5.88;3.40;;;29.60;77.40;;;;;;4994040;28;20042;-76
2023/06/26 13:12:14;;;;;;;5.07;3.53;;;29.80;78.00;;;;;;4985958;28;20082;-77
2023/06/26 13:14:54;;;;;;;8.10;3.60;;;29.90;78.20;;;;;;4975605;28;20027;-76
2023/06/26 13:17:26;;;;;;;5.30;3.55;;;29.90;75.00;;;;;;4984614;28;20435;-76
2023/06/26 13:19:58;;;;;;;8.75;3.30;;;29.70;77.60;;;;;;4981648;28;20060;-78
2023/06/26 13:22:30;;;;;;;4.10;2.90;;;29.40;77.40;;;;;;4995006;28;20077;-77
2023/06/26 13:25:02;;;;;;;7.05;3.30;;;29.30;77.20;;;;;;4983058;28;20023;-78